Time;durP1;ratioP1;P1;durP2;ratioP2;P2;SDS_P1;SDS_P2;PMS_P1;PMS_P2;Temp;Humidity;BMP_temperature;BMP_pressure;BME280_temperature;BME280_humidity;BME280_pressure;Samples;Min_cycle;Max_cycle;Signal;HPM_P1;HPM_P2
2023/08/04 00:00:56;;;;;;;7.20;4.40;;;;;;;23.37;59.96;100070.60;105420;1257;60466;-54
2023/08/04 00:03:24;;;;;;;6.90;4.90;;;;;;;23.34;60.04;100068.66;105439;1253;60373;-54
2023/08/04 00:05:52;;;;;;;5.70;3.60;;;;;;;23.31;60.06;100072.27;105373;1254;67190;-55
2023/08/04 00:08:19;;;;;;;6.60;3.80;;;;;;;23.31;59.93;100071.45;105351;1254;61363;-55
2023/08/04 00:10:47;;;;;;;5.60;3.90;;;;;;;23.32;59.83;100071.98;105322;1254;63713;-54
2023/08/04 00:13:14;;;;;;;6.40;4.10;;;;;;;23.34;59.78;100074.49;104781;1254;60590;-54
2023/08/04 00:15:42;;;;;;;7.30;4.40;;;;;;;23.34;59.83;100074.61;104952;1257;63027;-54
2023/08/04 00:18:09;;;;;;;7.40;4.40;;;;;;;23.33;59.77;100074.25;104818;1254;64914;-54
2023/08/04 00:20:37;;;;;;;7.40;5.00;;;;;;;23.31;59.64;100071.87;104964;1253;60421;-55
2023/08/04 00:23:04;;;;;;;7.50;4.80;;;;;;;23.26;59.57;100072.13;104867;1254;62423;-54
2023/08/04 00:25:32;;;;;;;7.80;4.50;;;;;;;23.22;59.49;100077.02;105038;1253;60562;-54
2023/08/04 00:27:59;;;;;;;6.90;4.30;;;;;;;23.18;59.69;100077.16;104983;1254;60874;-54
2023/08/04 00:30:27;;;;;;;5.50;3.80;;;;;;;23.16;59.82;100081.30;104901;1253;64896;-54
2023/08/04 00:32:54;;;;;;;6.40;4.40;;;;;;;23.17;59.87;100079.11;104888;1254;61342;-54
2023/08/04 00:35:22;;;;;;;6.10;4.40;;;;;;;23.20;59.99;100078.68;105456;1257;63653;-54
2023/08/04 00:37:50;;;;;;;7.00;4.60;;;;;;;23.20;59.94;100077.95;105091;1254;60476;-54
2023/08/04 00:40:17;;;;;;;5.50;3.80;;;;;;;23.20;59.97;100077.65;105182;1253;60552;-54
2023/08/04 00:42:45;;;;;;;7.20;4.40;;;;;;;23.19;59.90;100082.41;104918;1252;63730;-54
2023/08/04 00:45:12;;;;;;;6.50;4.30;;;;;;;23.16;59.83;100080.86;104977;1257;62294;-54
2023/08/04 00:47:40;;;;;;;8.50;4.20;;;;;;;23.13;59.93;100080.95;105066;1254;65761;-53
2023/08/04 00:50:08;;;;;;;6.80;4.30;;;;;;;23.10;59.81;100076.31;105354;1254;60412;-54
2023/08/04 00:52:36;;;;;;;8.80;4.40;;;;;;;23.11;59.91;100074.88;105075;1253;62636;-53
2023/08/04 00:55:05;;;;;;;6.70;3.90;;;;;;;23.12;59.74;100069.96;104944;1254;72724;-53
2023/08/04 00:57:33;;;;;;;6.30;4.10;;;;;;;23.13;59.78;100067.48;105386;1257;60319;-54
2023/08/04 01:00:00;;;;;;;6.90;4.90;;;;;;;23.12;59.91;100071.53;104819;1254;63738;-54
2023/08/04 01:02:28;;;;;;;7.10;4.60;;;;;;;23.11;59.91;100068.44;104956;1256;60467;-53
2023/08/04 01:04:55;;;;;;;7.20;4.80;;;;;;;23.10;59.85;100069.35;104952;1257;60389;-54
2023/08/04 01:07:24;;;;;;;9.20;4.30;;;;;;;23.08;60.14;100073.79;105059;1254;63710;-54
2023/08/04 01:10:01;;;;;;;7.60;4.30;;;;;;;23.05;60.57;100077.35;105190;1254;60562;-53
2023/08/04 01:12:53;;;;;;;11.90;3.80;;;;;;;23.05;60.54;100076.81;105021;1254;63749;-53
2023/08/04 01:15:20;;;;;;;6.70;3.50;;;;;;;23.06;60.67;100077.44;105072;1254;60555;-53
2023/08/04 01:17:48;;;;;;;5.50;3.70;;;;;;;23.06;60.87;100078.85;104799;1254;60552;-56
2023/08/04 01:20:15;;;;;;;6.90;3.90;;;;;;;23.03;61.00;100081.02;104949;1254;63722;-54
2023/08/04 01:22:43;;;;;;;8.70;4.80;;;;;;;23.01;60.87;100083.48;104973;1256;60472;-55
2023/08/04 01:25:10;;;;;;;6.20;4.30;;;;;;;22.98;60.63;100083.62;104957;1254;63715;-55
2023/08/04 01:27:41;;;;;;;6.40;4.20;;;;;;;22.95;60.46;100084.45;105027;1257;61218;-54
2023/08/04 01:30:18;;;;;;;6.90;3.70;;;;;;;22.92;60.67;100083.79;108445;1253;60469;-54
2023/08/04 01:32:46;;;;;;;5.90;3.90;;;;;;;22.93;60.69;100083.46;105043;1256;64945;-54
2023/08/04 01:35:15;;;;;;;9.70;4.10;;;;;;;22.96;60.80;100082.30;105354;1254;61576;-54
2023/08/04 01:37:43;;;;;;;7.50;3.90;;;;;;;23.00;60.95;100079.93;105496;1254;64282;-53
2023/08/04 01:40:12;;;;;;;7.00;4.40;;;;;;;23.00;60.99;100080.46;105045;1254;60551;-54
2023/08/04 01:42:40;;;;;;;6.70;4.00;;;;;;;22.99;60.88;100082.03;104941;1254;60553;-55
2023/08/04 01:45:08;;;;;;;9.20;4.50;;;;;;;22.99;60.78;100081.71;105687;1257;63668;-54
2023/08/04 01:47:37;;;;;;;9.40;4.30;;;;;;;22.97;60.47;100080.94;105083;1254;61453;-55
2023/08/04 01:50:07;;;;;;;7.40;3.90;;;;;;;22.94;60.44;100078.84;104992;1254;62454;-54
2023/08/04 01:52:35;;;;;;;5.60;3.90;;;;;;;22.92;60.19;100074.35;105009;1254;60619;-55
2023/08/04 01:55:03;;;;;;;6.40;3.90;;;;;;;22.90;60.09;100075.52;105435;1253;60481;-54
2023/08/04 01:57:31;;;;;;;6.70;4.60;;;;;;;22.88;60.16;100078.48;105441;1254;64174;-54
2023/08/04 01:59:59;;;;;;;6.40;3.90;;;;;;;22.84;60.36;100079.20;104939;1260;60772;-54
2023/08/04 02:02:27;;;;;;;6.30;3.90;;;;;;;22.80;60.62;100081.44;104934;1254;64059;-54
2023/08/04 02:04:58;;;;;;;8.50;4.40;;;;;;;22.77;60.91;100085.65;104910;1254;60434;-54
2023/08/04 02:07:25;;;;;;;5.40;3.50;;;;;;;22.78;61.07;100084.45;105152;1256;60392;-54
2023/08/04 02:09:53;;;;;;;7.00;3.50;;;;;;;22.80;61.03;100079.79;104859;1254;64953;-54
2023/08/04 02:12:20;;;;;;;5.30;3.60;;;;;;;22.83;60.90;100080.48;104937;1259;60996;-56
2023/08/04 02:14:48;;;;;;;6.30;3.90;;;;;;;22.82;60.86;100080.45;104909;1255;64727;-54
2023/08/04 02:17:16;;;;;;;6.90;3.90;;;;;;;22.80;61.01;100083.80;104869;1259;60431;-56
2023/08/04 02:19:44;;;;;;;6.10;4.40;;;;;;;22.74;60.92;100089.41;105098;1254;60536;-56
2023/08/04 02:22:11;;;;;;;8.10;4.30;;;;;;;22.69;60.86;100089.72;104808;1252;63772;-55
2023/08/04 02:24:39;;;;;;;5.80;3.80;;;;;;;22.67;60.81;100092.77;106054;1258;61377;-56
2023/08/04 02:27:06;;;;;;;8.00;4.10;;;;;;;22.68;60.89;100093.35;104846;1254;62620;-56
2023/08/04 02:29:33;;;;;;;7.60;4.00;;;;;;;22.69;60.98;100095.61;104559;1253;60536;-56
2023/08/04 02:32:03;;;;;;;6.80;3.50;;;;;;;22.70;61.20;100094.46;104861;1254;60536;-56
2023/08/04 02:34:30;;;;;;;5.70;3.50;;;;;;;22.70;61.39;100096.07;104637;1259;65833;-57
2023/08/04 02:36:58;;;;;;;5.90;3.80;;;;;;;22.69;61.26;100093.18;104972;1254;61888;-55
2023/08/04 02:39:25;;;;;;;6.40;3.40;;;;;;;22.68;61.12;100092.86;105007;1257;63730;-56
2023/08/04 02:41:53;;;;;;;5.70;4.10;;;;;;;22.67;60.87;100095.46;104811;1254;60542;-57
2023/08/04 02:44:20;;;;;;;7.50;3.90;;;;;;;22.65;60.53;100089.55;104832;1254;60655;-54
2023/08/04 02:46:48;;;;;;;6.40;4.00;;;;;;;22.61;60.44;100090.05;104834;1254;63794;-54
2023/08/04 02:49:16;;;;;;;6.30;2.80;;;;;;;22.61;60.44;100089.52;104799;1259;61867;-55
2023/08/04 02:51:43;;;;;;;5.30;3.10;;;;;;;22.63;60.48;100089.81;104801;1254;62909;-55
2023/08/04 02:54:11;;;;;;;7.90;4.00;;;;;;;22.66;60.66;100094.09;105073;1259;61551;-55
2023/08/04 02:56:39;;;;;;;5.20;3.50;;;;;;;22.67;60.68;100099.45;105056;1257;60370;-55
2023/08/04 02:59:06;;;;;;;5.40;3.70;;;;;;;22.67;60.79;100099.87;104812;1259;66153;-58
2023/08/04 03:01:34;;;;;;;6.60;3.80;;;;;;;22.68;60.98;100102.27;104951;1259;60463;-54
2023/08/04 03:04:02;;;;;;;6.90;3.40;;;;;;;22.68;61.26;100102.76;104893;1259;63726;-55
2023/08/04 03:06:29;;;;;;;6.00;3.80;;;;;;;22.72;61.35;100107.61;105878;1254;60648;-54
2023/08/04 03:08:57;;;;;;;5.40;3.10;;;;;;;22.77;61.50;100111.95;104762;1259;61046;-54
2023/08/04 03:11:24;;;;;;;6.80;3.50;;;;;;;22.81;61.52;100115.69;104889;1258;64945;-55
2023/08/04 03:13:52;;;;;;;6.80;3.80;;;;;;;22.84;61.43;100115.64;106628;1254;61885;-55
2023/08/04 03:16:19;;;;;;;6.20;3.70;;;;;;;22.88;61.78;100115.87;104813;1258;62446;-55
2023/08/04 03:18:47;;;;;;;6.90;3.50;;;;;;;22.90;61.77;100117.06;104839;1254;60457;-54
2023/08/04 03:21:14;;;;;;;6.80;4.20;;;;;;;22.93;61.65;100118.08;104937;1254;61220;-55
2023/08/04 03:23:42;;;;;;;6.10;4.10;;;;;;;22.99;61.29;100119.67;104823;1259;64892;-55
2023/08/04 03:26:10;;;;;;;9.10;3.80;;;;;;;23.04;61.30;100123.46;104906;1259;61302;-53
2023/08/04 03:28:37;;;;;;;5.40;3.70;;;;;;;23.09;61.41;100124.83;105038;1257;63760;-55
2023/08/04 03:31:05;;;;;;;6.30;3.70;;;;;;;23.12;61.46;100121.08;104815;1254;60560;-56
2023/08/04 03:33:33;;;;;;;5.90;3.80;;;;;;;23.16;61.47;100121.11;105214;1254;60555;-55
2023/08/04 03:36:00;;;;;;;7.00;4.00;;;;;;;23.17;61.27;100118.74;104721;1259;64877;-56
2023/08/04 03:38:28;;;;;;;7.40;3.70;;;;;;;23.18;61.39;100114.54;104627;1256;61432;-55
2023/08/04 03:40:56;;;;;;;7.60;3.90;;;;;;;23.23;61.46;100116.21;105612;1254;64307;-55
2023/08/04 03:43:23;;;;;;;5.20;3.60;;;;;;;23.29;61.13;100120.02;104792;1260;60424;-55
2023/08/04 03:45:50;;;;;;;5.40;3.40;;;;;;;23.36;60.97;100120.48;104576;1253;61018;-55
2023/08/04 03:48:18;;;;;;;6.00;3.70;;;;;;;23.42;60.72;100124.77;104586;1252;63732;-55
2023/08/04 03:50:46;;;;;;;6.20;3.70;;;;;;;23.46;60.79;100127.38;104921;1254;61293;-50
2023/08/04 03:53:13;;;;;;;6.60;3.60;;;;;;;23.49;60.62;100127.45;104862;1259;62410;-54
2023/08/04 03:55:42;;;;;;;7.00;4.50;;;;;;;23.53;60.43;100124.27;105057;1254;60420;-55
2023/08/04 03:58:09;;;;;;;7.40;4.10;;;;;;;23.56;60.09;100126.46;104898;1254;60528;-56
2023/08/04 04:00:36;;;;;;;7.20;4.10;;;;;;;23.65;59.50;100127.98;104868;1257;64933;-55
2023/08/04 04:03:05;;;;;;;9.70;4.40;;;;;;;23.74;59.14;100128.30;104498;1254;61875;-55
2023/08/04 04:05:32;;;;;;;6.10;4.40;;;;;;;23.81;58.89;100129.10;104512;1254;63725;-55
2023/08/04 04:08:00;;;;;;;8.60;4.90;;;;;;;23.86;58.56;100129.84;104860;1257;60518;-56
2023/08/04 04:10:27;;;;;;;7.50;4.40;;;;;;;23.90;58.41;100128.90;104718;1255;60989;-55
2023/08/04 04:12:55;;;;;;;6.40;4.50;;;;;;;23.92;58.41;100129.14;104591;1254;64852;-55
2023/08/04 04:15:22;;;;;;;8.00;4.60;;;;;;;23.93;58.42;100133.46;104654;1257;61369;-55
2023/08/04 04:17:50;;;;;;;6.40;4.40;;;;;;;23.97;58.17;100130.80;104546;1253;63764;-54
2023/08/04 04:20:17;;;;;;;6.60;4.10;;;;;;;24.03;57.93;100127.70;104674;1255;60561;-50
2023/08/04 04:22:45;;;;;;;7.60;5.40;;;;;;;24.06;58.10;100129.13;104839;1254;60466;-54
2023/08/04 04:25:12;;;;;;;7.90;4.80;;;;;;;24.09;57.91;100132.69;104970;1254;63741;-52
2023/08/04 04:27:40;;;;;;;7.80;5.60;;;;;;;24.10;57.92;100133.02;104956;1254;61405;-55
2023/08/04 04:30:08;;;;;;;6.40;4.70;;;;;;;24.11;58.05;100130.90;105463;1254;63759;-53
2023/08/04 04:32:35;;;;;;;10.80;5.50;;;;;;;24.13;57.95;100133.26;105008;1260;60444;-54
2023/08/04 04:35:03;;;;;;;6.80;4.50;;;;;;;24.17;57.74;100134.88;104914;1254;60562;-55
2023/08/04 04:37:31;;;;;;;6.20;4.50;;;;;;;24.21;57.79;100137.31;105124;1254;63702;-54
2023/08/04 04:39:58;;;;;;;8.80;5.30;;;;;;;24.22;57.92;100136.20;104866;1259;62133;-55
2023/08/04 04:42:26;;;;;;;7.50;5.10;;;;;;;24.23;57.85;100134.66;104892;1254;72914;-55
2023/08/04 04:44:54;;;;;;;8.30;5.40;;;;;;;24.23;57.74;100135.79;104897;1254;60561;-55
2023/08/04 04:47:22;;;;;;;7.00;5.40;;;;;;;24.23;57.76;100138.71;105364;1254;60677;-54
2023/08/04 04:49:49;;;;;;;9.80;5.70;;;;;;;24.24;57.76;100138.21;104643;1257;63640;-57
2023/08/04 04:52:32;;;;;;;7.90;5.80;;;;;;;24.25;57.43;100141.85;104950;1255;64055;-54
2023/08/04 04:55:00;;;;;;;8.60;5.70;;;;;;;24.31;57.44;100142.30;104931;1254;63719;-55
2023/08/04 04:57:28;;;;;;;7.60;5.10;;;;;;;24.39;57.40;100140.82;109023;1254;59331;-53
2023/08/04 04:59:56;;;;;;;8.30;6.10;;;;;;;24.48;57.41;100148.03;105477;1257;60500;-55
2023/08/04 05:02:23;;;;;;;10.30;5.60;;;;;;;24.53;57.43;100147.41;104940;1258;64869;-59
2023/08/04 05:04:51;;;;;;;8.20;5.70;;;;;;;24.56;57.17;100150.54;104967;1259;60535;-59
2023/08/04 05:07:18;;;;;;;7.00;5.20;;;;;;;24.59;57.01;100153.50;104661;1254;66245;-60
2023/08/04 05:09:46;;;;;;;9.40;5.80;;;;;;;24.62;56.89;100154.60;104593;1254;60556;-63
2023/08/04 05:12:13;;;;;;;9.70;6.20;;;;;;;24.63;56.82;100159.05;105051;1254;60511;-68
2023/08/04 05:14:41;;;;;;;7.50;5.80;;;;;;;24.64;56.86;100158.95;105090;1254;63702;-54
2023/08/04 05:17:08;;;;;;;6.90;5.50;;;;;;;24.70;56.96;100161.89;105965;1256;60449;-57
2023/08/04 05:19:36;;;;;;;7.30;5.60;;;;;;;24.77;56.85;100163.34;104850;1258;64780;-57
2023/08/04 05:22:04;;;;;;;7.80;6.10;;;;;;;24.82;56.93;100157.54;104579;1254;60435;-56
2023/08/04 05:24:31;;;;;;;7.20;5.40;;;;;;;24.88;56.85;100159.48;104729;1255;60511;-57
2023/08/04 05:26:59;;;;;;;10.00;6.00;;;;;;;24.93;56.58;100158.10;104654;1259;64836;-54
2023/08/04 05:29:26;;;;;;;8.20;6.40;;;;;;;24.97;56.81;100160.42;109037;1252;61506;-56
2023/08/04 05:31:54;;;;;;;7.10;5.80;;;;;;;25.04;56.50;100170.57;109034;1254;64940;-65
2023/08/04 05:34:22;;;;;;;7.00;5.10;;;;;;;25.10;56.35;100169.48;108957;1256;58607;-58
2023/08/04 05:36:49;;;;;;;8.00;5.30;;;;;;;25.18;56.45;100169.14;109010;1257;59528;-59
2023/08/04 05:39:17;;;;;;;7.30;5.20;;;;;;;25.30;56.09;100167.78;108960;1254;63647;-54
2023/08/04 05:41:45;;;;;;;7.40;5.50;;;;;;;25.40;55.78;100166.05;108882;1254;61717;-59
2023/08/04 05:44:13;;;;;;;8.40;5.70;;;;;;;25.48;55.51;100165.46;108978;1253;62446;-55
2023/08/04 05:46:40;;;;;;;7.90;6.00;;;;;;;25.56;55.23;100167.18;108998;1253;58482;-56
2023/08/04 05:49:08;;;;;;;7.60;5.60;;;;;;;25.63;54.89;100166.99;107995;1251;60533;-56
2023/08/04 05:51:35;;;;;;;8.10;6.50;;;;;;;25.70;55.00;100167.66;104851;1257;64858;-53
2023/08/04 05:54:03;;;;;;;9.20;5.70;;;;;;;25.75;55.02;100166.41;105106;1256;61636;-54
2023/08/04 05:56:30;;;;;;;7.40;5.40;;;;;;;25.81;55.06;100165.05;104721;1255;62471;-60
2023/08/04 05:58:58;;;;;;;8.40;5.30;;;;;;;25.88;54.38;100166.20;104872;1256;60529;-57
2023/08/04 06:01:26;;;;;;;8.40;5.30;;;;;;;25.95;53.98;100172.14;104798;1259;60351;-57
2023/08/04 06:03:54;;;;;;;7.40;5.20;;;;;;;26.01;53.86;100169.11;109119;1251;65090;-58
2023/08/04 06:06:21;;;;;;;9.70;6.00;;;;;;;26.07;53.78;100171.11;106613;1257;61418;-57
2023/08/04 06:08:49;;;;;;;7.10;5.30;;;;;;;26.13;53.38;100174.11;104788;1254;63734;-57
2023/08/04 06:11:16;;;;;;;7.60;5.80;;;;;;;26.16;53.04;100173.70;104830;1258;63210;-57
2023/08/04 06:13:44;;;;;;;7.70;5.10;;;;;;;26.19;53.27;100176.85;104759;1251;61303;-58
2023/08/04 06:16:11;;;;;;;8.00;5.30;;;;;;;26.23;53.62;100173.06;104706;1258;64930;-58
2023/08/04 06:18:40;;;;;;;10.00;5.80;;;;;;;26.28;53.71;100175.30;104836;1260;63250;-57
2023/08/04 06:21:07;;;;;;;8.50;6.10;;;;;;;26.33;53.58;100180.87;108743;1251;64642;-57
2023/08/04 06:23:35;;;;;;;8.50;5.20;;;;;;;26.38;53.38;100181.36;104857;1256;60366;-58
2023/08/04 06:26:02;;;;;;;13.10;6.70;;;;;;;26.45;52.95;100181.10;104923;1261;60562;-57
2023/08/04 06:28:30;;;;;;;7.60;5.20;;;;;;;26.52;52.73;100183.59;105061;1259;64901;-57
2023/08/04 06:30:57;;;;;;;9.30;6.30;;;;;;;26.57;52.53;100186.30;104975;1257;61367;-57
2023/08/04 06:33:25;;;;;;;7.90;5.40;;;;;;;26.62;52.75;100188.09;104811;1259;66265;-68
2023/08/04 06:35:53;;;;;;;13.50;6.40;;;;;;;26.65;52.40;100186.30;105705;1256;60498;-65
2023/08/04 06:38:23;;;;;;;9.90;5.70;;;;;;;26.69;52.56;100184.45;104942;1258;61155;-68
2023/08/04 06:40:51;;;;;;;8.10;5.90;;;;;;;26.75;52.73;100189.61;104799;1259;67079;-65
2023/08/04 06:43:19;;;;;;;8.90;5.30;;;;;;;26.81;52.68;100186.55;104963;1254;61662;-71
2023/08/04 06:45:46;;;;;;;7.50;5.80;;;;;;;26.86;52.77;100184.31;104791;1256;62543;-68
2023/08/04 06:48:14;;;;;;;7.50;5.30;;;;;;;26.92;52.80;100185.34;104934;1251;60532;-69
2023/08/04 06:50:41;;;;;;;9.60;5.70;;;;;;;26.96;52.34;100187.48;104775;1257;60299;-69
2023/08/04 06:53:10;;;;;;;7.50;5.40;;;;;;;27.01;52.20;100187.21;104555;1259;65023;-70
2023/08/04 06:55:38;;;;;;;7.30;5.50;;;;;;;27.07;52.71;100190.59;105530;1254;61339;-67
2023/08/04 06:58:13;;;;;;;8.80;5.60;;;;;;;27.17;52.69;100196.75;104857;1255;63814;-68
2023/08/04 07:00:41;;;;;;;7.50;5.10;;;;;;;27.28;52.02;100201.59;106358;1257;60449;-69
2023/08/04 07:03:11;;;;;;;9.90;5.80;;;;;;;27.35;51.66;100199.70;104865;1257;268713;-69
2023/08/04 07:17:28;;;;;;;;;;;;;;;27.68;51.69;100203.41;102395;1289;604253;-68
2023/08/04 07:19:55;;;;;;;7.90;5.30;;;;;;;28.27;50.69;100209.02;103543;1270;106280;-62
2023/08/04 07:22:23;;;;;;;8.30;6.00;;;;;;;28.31;50.65;100207.68;103915;1272;60583;-66
2023/08/04 07:24:53;;;;;;;8.50;5.90;;;;;;;28.31;50.51;100203.09;103905;1267;63733;-64
2023/08/04 07:27:21;;;;;;;7.60;5.30;;;;;;;28.34;50.45;100207.02;104451;1267;60177;-64
2023/08/04 07:29:48;;;;;;;7.50;6.10;;;;;;;28.36;50.42;100204.41;103991;1267;63952;-71
2023/08/04 07:32:17;;;;;;;8.30;5.50;;;;;;;28.38;50.73;100202.06;103938;1272;59378;-69
2023/08/04 07:34:45;;;;;;;7.40;5.40;;;;;;;28.41;51.31;100201.36;103758;1272;59982;-70
2023/08/04 07:37:12;;;;;;;7.40;6.30;;;;;;;28.49;51.32;100198.94;103782;1267;63938;-68
2023/08/04 07:39:39;;;;;;;8.10;5.70;;;;;;;28.58;51.18;100195.80;103727;1266;62800;-71
2023/08/04 07:42:07;;;;;;;9.10;5.80;;;;;;;28.65;51.43;100199.45;108041;1266;63741;-71
2023/08/04 07:44:34;;;;;;;9.10;6.60;;;;;;;28.71;50.77;100200.83;108012;1266;57793;-67
2023/08/04 07:47:02;;;;;;;8.10;5.60;;;;;;;28.77;49.92;100201.13;105574;1272;59240;-68
2023/08/04 07:49:30;;;;;;;8.10;6.00;;;;;;;28.80;49.84;100201.40;103798;1267;62840;-64
2023/08/04 07:51:58;;;;;;;7.40;5.40;;;;;;;28.84;49.78;100201.17;103775;1266;60218;-68
2023/08/04 07:54:25;;;;;;;9.60;5.60;;;;;;;28.88;49.80;100202.75;103778;1267;62855;-65
2023/08/04 07:56:53;;;;;;;8.00;5.70;;;;;;;28.92;49.37;100201.77;103887;1272;59781;-67
2023/08/04 07:59:20;;;;;;;7.50;5.70;;;;;;;28.96;49.09;100200.48;103828;1268;59624;-66
2023/08/04 08:01:48;;;;;;;8.90;5.50;;;;;;;29.00;49.16;100205.14;103841;1272;64585;-70
2023/08/04 08:04:16;;;;;;;8.00;5.30;;;;;;;29.03;49.19;100206.17;103726;1267;61933;-62
2023/08/04 08:06:44;;;;;;;7.80;5.50;;;;;;;29.07;49.30;100204.23;103906;1269;63917;-62
2023/08/04 08:09:12;;;;;;;7.00;5.20;;;;;;;29.13;48.65;100204.23;105092;1270;59778;-57
2023/08/04 08:11:39;;;;;;;8.50;5.60;;;;;;;29.18;48.56;100205.67;104077;1267;59679;-57
2023/08/04 08:14:07;;;;;;;8.70;5.70;;;;;;;29.24;48.96;100209.52;103906;1272;64659;-57
2023/08/04 08:16:34;;;;;;;6.60;5.20;;;;;;;29.31;48.65;100209.21;103723;1272;62263;-58
2023/08/04 08:19:03;;;;;;;8.20;5.40;;;;;;;29.36;47.76;100212.35;103675;1270;62485;-57
2023/08/04 08:21:31;;;;;;;7.10;5.20;;;;;;;29.41;47.64;100212.92;103879;1269;59874;-56
2023/08/04 08:23:59;;;;;;;8.80;5.60;;;;;;;29.46;47.81;100214.44;103632;1269;59565;-57
2023/08/04 08:26:26;;;;;;;8.00;5.80;;;;;;;29.52;47.94;100211.20;103660;1267;64344;-61
2023/08/04 08:28:54;;;;;;;8.50;5.30;;;;;;;29.57;46.96;100209.98;103696;1267;60370;-57
2023/08/04 08:31:21;;;;;;;6.50;4.90;;;;;;;29.63;46.44;100214.15;103852;1267;63707;-57
2023/08/04 08:33:49;;;;;;;7.50;5.50;;;;;;;29.71;46.43;100213.98;103983;1266;59929;-57
2023/08/04 08:36:19;;;;;;;7.20;5.50;;;;;;;29.77;46.66;100215.10;103879;1267;59547;-56
2023/08/04 08:38:46;;;;;;;7.60;5.70;;;;;;;29.84;46.52;100214.04;103912;1267;62905;-56
2023/08/04 08:41:14;;;;;;;6.80;5.40;;;;;;;29.92;46.60;100214.83;103983;1267;61406;-58
2023/08/04 08:43:42;;;;;;;8.30;5.40;;;;;;;29.98;46.76;100218.09;103966;1267;64179;-59
2023/08/04 08:46:09;;;;;;;7.60;5.80;;;;;;;30.05;46.92;100217.45;103886;1272;60452;-57
2023/08/04 08:48:37;;;;;;;7.40;5.30;;;;;;;30.10;46.78;100220.15;103810;1267;59431;-59
2023/08/04 08:51:12;;;;;;;7.70;5.60;;;;;;;30.17;45.51;100217.90;103939;1266;64994;-59
2023/08/04 08:53:39;;;;;;;7.50;5.30;;;;;;;30.26;46.06;100219.83;104249;1266;61423;-56
2023/08/04 08:56:09;;;;;;;7.80;6.10;;;;;;;30.35;46.56;100224.53;103912;1267;63737;-58
2023/08/04 08:58:37;;;;;;;7.60;5.70;;;;;;;30.42;46.98;100227.04;103758;1269;59756;-58
2023/08/04 09:01:04;;;;;;;8.60;6.20;;;;;;;30.48;47.37;100226.70;104107;1270;61065;-60
2023/08/04 09:03:34;;;;;;;8.80;5.90;;;;;;;30.56;47.72;100224.65;104159;1267;62830;-58
2023/08/04 09:06:02;;;;;;;8.80;5.30;;;;;;;30.63;47.40;100225.85;103917;1272;60140;-58
2023/08/04 09:08:30;;;;;;;8.70;6.70;;;;;;;30.70;47.07;100229.05;104319;1267;65579;-58
2023/08/04 09:10:58;;;;;;;8.70;6.80;;;;;;;30.75;47.80;100228.33;104056;1266;59756;-57
2023/08/04 09:13:26;;;;;;;7.40;5.90;;;;;;;30.77;48.50;100230.24;104224;1267;59731;-56
2023/08/04 09:15:55;;;;;;;6.80;5.50;;;;;;;30.78;48.74;100229.27;104224;1270;64201;-57
2023/08/04 09:18:33;;;;;;;9.50;6.30;;;;;;;30.80;48.67;100227.45;104304;1267;61374;-57
2023/08/04 09:21:12;;;;;;;8.20;6.30;;;;;;;30.84;48.74;100228.71;104219;1272;62541;-58
2023/08/04 09:23:48;;;;;;;7.90;5.60;;;;;;;30.87;48.78;100225.69;103812;1274;59739;-58
2023/08/04 09:26:16;;;;;;;7.80;5.50;;;;;;;30.91;48.38;100224.96;103945;1266;59570;-57
2023/08/04 09:28:43;;;;;;;9.60;5.90;;;;;;;30.95;47.58;100230.17;103978;1272;64744;-58
2023/08/04 09:31:11;;;;;;;7.70;5.20;;;;;;;30.97;47.54;100233.88;103847;1267;61377;-58
2023/08/04 09:33:41;;;;;;;8.00;5.00;;;;;;;31.01;47.73;100227.48;108114;1265;63844;-58
2023/08/04 09:36:10;;;;;;;9.10;5.40;;;;;;;31.08;46.82;100228.77;108138;1269;58058;-58
2023/08/04 09:38:38;;;;;;;6.40;5.10;;;;;;;31.13;46.94;100233.05;108137;1266;59532;-58
2023/08/04 09:41:06;;;;;;;8.10;5.40;;;;;;;31.18;47.37;100232.10;108175;1267;64677;-58
2023/08/04 09:43:34;;;;;;;9.70;5.10;;;;;;;31.25;47.66;100234.47;107361;1267;61424;-57
2023/08/04 09:46:04;;;;;;;6.40;4.80;;;;;;;31.31;46.94;100232.60;104329;1270;65731;-58
2023/08/04 09:48:33;;;;;;;7.10;4.60;;;;;;;31.36;46.13;100232.41;103975;1272;60322;-60
2023/08/04 09:51:14;;;;;;;8.90;5.40;;;;;;;31.42;45.37;100229.60;104068;1267;59186;-58
2023/08/04 09:53:45;;;;;;;7.50;5.50;;;;;;;31.46;45.66;100230.42;104033;1267;64615;-57
2023/08/04 09:56:14;;;;;;;7.00;4.90;;;;;;;31.51;46.19;100228.45;103912;1272;60232;-57
2023/08/04 09:58:42;;;;;;;6.80;5.30;;;;;;;31.56;46.42;100231.27;104430;1267;63792;-58
2023/08/04 10:01:09;;;;;;;12.80;4.60;;;;;;;31.62;46.13;100233.45;104173;1267;59756;-57
2023/08/04 10:03:59;;;;;;;6.60;4.30;;;;;;;31.68;45.60;100229.84;104069;1271;59679;-58
2023/08/04 10:06:27;;;;;;;8.00;5.10;;;;;;;31.75;45.40;100230.13;104209;1270;64070;-57
2023/08/04 10:08:56;;;;;;;9.90;5.10;;;;;;;31.80;45.66;100231.27;103987;1267;61445;-57
2023/08/04 10:11:23;;;;;;;7.50;5.60;;;;;;;31.84;45.81;100230.14;104005;1270;64666;-57
2023/08/04 10:13:52;;;;;;;8.50;5.00;;;;;;;31.88;45.92;100230.20;104350;1269;59644;-56
2023/08/04 10:16:22;;;;;;;10.50;5.10;;;;;;;31.89;45.94;100232.66;104761;1267;59832;-57
2023/08/04 10:18:54;;;;;;;10.10;5.20;;;;;;;31.91;46.21;100233.25;104278;1267;64214;-57
2023/08/04 10:21:26;;;;;;;6.80;4.70;;;;;;;31.95;46.29;100231.75;104293;1263;61314;-58
2023/08/04 10:23:54;;;;;;;7.90;5.10;;;;;;;32.00;46.08;100233.77;104152;1265;62531;-58
2023/08/04 10:26:22;;;;;;;8.00;4.90;;;;;;;32.08;45.30;100234.80;104245;1266;61124;-59
2023/08/04 10:29:05;;;;;;;8.20;5.50;;;;;;;32.16;44.74;100233.50;104303;1268;59762;-59
2023/08/04 10:31:52;;;;;;;7.10;4.70;;;;;;;32.26;44.48;100234.70;104282;1269;64635;-59
2023/08/04 10:34:38;;;;;;;5.90;3.90;;;;;;;32.37;43.00;100238.52;104077;1264;61532;-58
2023/08/04 10:37:12;;;;;;;7.10;3.70;;;;;;;32.47;39.04;100233.95;104865;1263;63708;-58
2023/08/04 10:39:44;;;;;;;6.20;3.70;;;;;;;32.59;39.23;100235.60;104207;1265;59882;-58
2023/08/04 10:42:11;;;;;;;9.20;5.80;;;;;;;32.69;39.63;100238.61;104004;1269;59705;-57
2023/08/04 10:44:53;;;;;;;7.20;4.80;;;;;;;32.78;41.30;100242.46;104337;1264;62917;-56
2023/08/04 10:47:46;;;;;;;12.90;4.40;;;;;;;32.85;40.10;100240.61;104103;1263;62451;-59
2023/08/04 10:50:33;;;;;;;5.80;3.60;;;;;;;32.94;37.62;100240.90;104240;1263;63775;-59
2023/08/04 10:53:00;;;;;;;7.80;3.60;;;;;;;33.02;36.30;100242.30;104252;1264;59736;-58
2023/08/04 10:55:28;;;;;;;6.10;3.90;;;;;;;33.10;36.70;100246.27;105073;1263;60836;-60
2023/08/04 10:57:55;;;;;;;8.00;4.40;;;;;;;33.20;36.68;100245.93;104242;1264;63001;-59
2023/08/04 11:00:26;;;;;;;5.30;3.30;;;;;;;33.28;36.29;100245.86;104291;1263;60105;-61
2023/08/04 11:02:53;;;;;;;5.90;3.60;;;;;;;33.32;36.14;100250.48;104225;1268;63730;-59
2023/08/04 11:05:21;;;;;;;6.80;3.70;;;;;;;33.39;36.43;100250.45;104663;1264;59774;-58
2023/08/04 11:07:49;;;;;;;7.80;4.10;;;;;;;33.46;35.72;100250.21;105864;1263;59740;-60
2023/08/04 11:10:17;;;;;;;5.40;3.30;;;;;;;33.53;35.51;100251.60;104298;1263;64357;-59
2023/08/04 11:12:44;;;;;;;8.90;4.60;;;;;;;33.60;34.82;100249.82;104010;1263;61435;-57
2023/08/04 11:15:11;;;;;;;7.10;3.90;;;;;;;33.66;35.01;100250.52;103887;1263;63815;-58
2023/08/04 11:17:39;;;;;;;7.00;3.40;;;;;;;33.72;34.77;100247.89;103995;1266;59778;-59
2023/08/04 11:20:12;;;;;;;4.90;2.60;;;;;;;33.76;34.93;100249.39;104016;1268;59753;-57
2023/08/04 11:23:00;;;;;;;5.00;2.70;;;;;;;33.81;34.23;100248.98;108331;1263;64186;-58
2023/08/04 11:25:27;;;;;;;5.20;3.10;;;;;;;33.89;35.05;100249.70;106409;1265;60449;-58
2023/08/04 11:27:55;;;;;;;5.00;2.90;;;;;;;33.97;34.40;100250.85;103966;1269;62548;-57
2023/08/04 11:30:22;;;;;;;5.10;3.10;;;;;;;34.02;33.14;100251.86;104200;1269;60470;-59
2023/08/04 11:32:50;;;;;;;6.90;3.90;;;;;;;34.08;33.29;100250.58;103990;1263;60521;-58
2023/08/04 11:35:19;;;;;;;11.50;4.20;;;;;;;34.09;33.57;100254.32;104144;1263;63683;-58